Time,TemperatureF,DewpointF,PressureIn,WindDirection,WindDirectionDegrees,WindSpeedMPH,WindSpeedGustMPH,Humidity,HourlyPrecipIn,Conditions,Clouds,dailyrainin,SoftwareType,DateUTC
2013-11-27 00:03:00,44.8,39.3,29.98,East,92,2.0,7.0,81,0.00,,,0.00,Wunderground v.1.15,2013-11-27 08:03:00,
2013-11-27 00:08:00,44.8,39.3,29.98,East,92,3.0,7.0,81,0.00,,,0.00,Wunderground v.1.15,2013-11-27 08:08:00,
2013-11-27 00:13:00,44.7,39.2,29.97,East,96,3.0,5.0,81,0.00,,,0.00,Wunderground v.1.15,2013-11-27 08:13:00,
2013-11-27 00:19:00,44.5,39.0,29.97,East,97,2.0,5.0,81,0.00,,,0.00,Wunderground v.1.15,2013-11-27 08:19:00,
2013-11-27 00:25:00,44.5,39.0,29.97,East,96,3.0,5.0,81,0.00,,,0.00,Wunderground v.1.15,2013-11-27 08:25:00,
2013-11-27 00:31:00,44.5,39.0,29.97,East,96,3.0,5.0,81,0.00,,,0.00,Wunderground v.1.15,2013-11-27 08:31:00,
2013-11-27 00:36:00,44.5,39.0,29.97,East,96,3.0,5.0,81,0.00,,,0.00,Wunderground v.1.15,2013-11-27 08:36:00,
2013-11-27 00:42:00,44.5,39.0,29.96,East,96,2.0,3.0,81,0.00,,,0.00,Wunderground v.1.15,2013-11-27 08:42:00,
2013-11-27 00:48:00,44.5,39.0,29.96,East,91,3.0,7.0,81,0.00,,,0.00,Wunderground v.1.15,2013-11-27 08:48:00,
2013-11-27 00:54:00,44.5,39.0,29.96,East,91,4.0,6.0,81,0.00,,,0.00,Wunderground v.1.15,2013-11-27 08:54:00,
2013-11-27 01:00:00,44.4,38.9,29.95,East,89,4.0,6.0,81,0.00,,,0.00,Wunderground v.1.15,2013-11-27 09:00:00,
2013-11-27 01:06:00,44.1,38.6,29.95,East,90,4.0,7.0,81,0.00,,,0.00,Wunderground v.1.15,2013-11-27 09:06:00,
2013-11-27 01:12:00,43.9,38.8,29.95,East,91,3.0,7.0,82,0.00,,,0.00,Wunderground v.1.15,2013-11-27 09:12:00,
2013-11-27 01:18:00,43.8,38.7,29.94,East,91,4.0,7.0,82,0.00,,,0.00,Wunderground v.1.15,2013-11-27 09:18:00,
2013-11-27 01:24:00,43.6,38.5,29.94,East,91,4.0,7.0,82,0.00,,,0.00,Wunderground v.1.15,2013-11-27 09:24:00,
2013-11-27 01:30:00,43.4,38.3,29.94,East,92,3.0,3.0,82,0.00,,,0.00,Wunderground v.1.15,2013-11-27 09:30:00,
2013-11-27 01:35:00,43.3,38.2,29.94,East,92,1.0,7.0,82,0.00,,,0.00,Wunderground v.1.15,2013-11-27 09:35:00,
2013-11-27 01:41:00,43.2,38.1,29.95,East,92,1.0,7.0,82,0.00,,,0.00,Wunderground v.1.15,2013-11-27 09:41:00,
2013-11-27 01:47:00,43.2,38.1,29.95,East,92,1.0,7.0,82,0.00,,,0.00,Wunderground v.1.15,2013-11-27 09:47:00,
2013-11-27 01:53:00,43.4,38.6,29.95,East,87,2.0,7.0,83,0.00,,,0.00,Wunderground v.1.15,2013-11-27 09:53:00,
2013-11-27 01:59:00,43.6,38.5,29.94,East,88,3.0,7.0,82,0.00,,,0.00,Wunderground v.1.15,2013-11-27 09:59:00,
2013-11-27 02:05:00,43.8,38.7,29.94,East,89,4.0,7.0,82,0.00,,,0.00,Wunderground v.1.15,2013-11-27 10:05:00,
2013-11-27 02:11:00,43.8,38.3,29.95,East,89,4.0,5.0,81,0.00,,,0.00,Wunderground v.1.15,2013-11-27 10:11:00,
2013-11-27 02:16:00,43.7,38.3,29.95,East,89,4.0,7.0,81,0.00,,,0.00,Wunderground v.1.15,2013-11-27 10:16:00,
2013-11-27 02:22:00,43.5,38.1,29.94,East,89,3.0,7.0,81,0.00,,,0.00,Wunderground v.1.15,2013-11-27 10:22:00,
2013-11-27 02:28:00,43.2,38.1,29.95,East,89,4.0,7.0,82,0.00,,,0.00,Wunderground v.1.15,2013-11-27 10:28:00,
2013-11-27 02:34:00,43.0,37.9,29.94,East,90,3.0,7.0,82,0.00,,,0.00,Wunderground v.1.15,2013-11-27 10:34:00,
2013-11-27 02:40:00,43.0,37.9,29.94,East,89,4.0,4.0,82,0.00,,,0.00,Wunderground v.1.15,2013-11-27 10:40:00,
2013-11-27 02:46:00,42.8,37.7,29.94,East,89,3.0,7.0,82,0.00,,,0.00,Wunderground v.1.15,2013-11-27 10:46:00,
2013-11-27 02:52:00,42.7,37.6,29.93,East,90,2.0,7.0,82,0.00,,,0.00,Wunderground v.1.15,2013-11-27 10:52:00,
2013-11-27 02:57:00,42.5,37.4,29.93,East,90,2.0,7.0,82,0.00,,,0.00,Wunderground v.1.15,2013-11-27 10:57:00,
2013-11-27 03:03:00,42.4,37.3,29.93,East,90,2.0,7.0,82,0.00,,,0.00,Wunderground v.1.15,2013-11-27 11:03:00,
2013-11-27 03:09:00,42.3,37.2,29.93,East,90,1.0,7.0,82,0.00,,,0.00,Wunderground v.1.15,2013-11-27 11:09:00,
2013-11-27 03:15:00,42.2,37.1,29.94,East,90,0.0,7.0,82,0.00,,,0.00,Wunderground v.1.15,2013-11-27 11:15:00,
2013-11-27 03:21:00,42.2,37.1,29.94,East,90,1.0,7.0,82,0.00,,,0.00,Wunderground v.1.15,2013-11-27 11:21:00,
2013-11-27 03:26:00,42.5,37.7,29.93,East,92,2.0,7.0,83,0.00,,,0.00,Wunderground v.1.15,2013-11-27 11:26:00,
2013-11-27 03:33:00,42.7,37.6,29.92,East,92,3.0,7.0,82,0.00,,,0.00,Wunderground v.1.15,2013-11-27 11:33:00,
2013-11-27 03:38:00,42.7,37.6,29.92,East,92,4.0,7.0,82,0.00,,,0.00,Wunderground v.1.15,2013-11-27 11:38:00,
2013-11-27 03:44:00,42.5,37.4,29.92,East,92,4.0,7.0,82,0.00,,,0.00,Wunderground v.1.15,2013-11-27 11:44:00,
2013-11-27 03:50:00,42.3,37.2,29.92,East,92,4.0,4.0,82,0.00,,,0.00,Wunderground v.1.15,2013-11-27 11:50:00,
2013-11-27 03:56:00,42.2,37.1,29.92,East,92,3.0,7.0,82,0.00,,,0.00,Wunderground v.1.15,2013-11-27 11:56:00,
2013-11-27 04:01:00,42.1,37.0,29.92,East,92,3.0,7.0,82,0.00,,,0.00,Wunderground v.1.15,2013-11-27 12:01:00,
2013-11-27 04:07:00,42.0,36.9,29.92,East,92,3.0,7.0,82,0.00,,,0.00,Wunderground v.1.15,2013-11-27 12:07:00,
2013-11-27 04:13:00,41.8,36.7,29.92,East,92,2.0,7.0,82,0.00,,,0.00,Wunderground v.1.15,2013-11-27 12:13:00,
2013-11-27 04:19:00,41.6,36.8,29.92,East,93,4.0,7.0,83,0.00,,,0.00,Wunderground v.1.15,2013-11-27 12:19:00,
2013-11-27 04:25:00,41.6,36.8,29.92,East,93,4.0,7.0,83,0.00,,,0.00,Wunderground v.1.15,2013-11-27 12:25:00,
2013-11-27 04:31:00,41.6,36.8,29.91,East,94,4.0,7.0,83,0.00,,,0.00,Wunderground v.1.15,2013-11-27 12:31:00,
2013-11-27 04:37:00,41.6,36.8,29.91,East,94,4.0,7.0,83,0.00,,,0.00,Wunderground v.1.15,2013-11-27 12:37:00,
2013-11-27 04:43:00,41.8,37.0,29.91,East,94,4.0,7.0,83,0.00,,,0.00,Wunderground v.1.15,2013-11-27 12:43:00,
2013-11-27 04:48:00,41.8,37.0,29.91,East,94,4.0,7.0,83,0.00,,,0.00,Wunderground v.1.15,2013-11-27 12:48:00,
2013-11-27 04:53:00,41.8,36.7,29.91,East,93,4.0,7.0,82,0.00,,,0.00,Wunderground v.1.15,2013-11-27 12:53:00,
2013-11-27 04:59:00,41.8,37.0,29.91,East,93,4.0,7.0,83,0.00,,,0.00,Wunderground v.1.15,2013-11-27 12:59:00,
2013-11-27 05:05:00,41.8,36.7,29.91,East,93,5.0,7.0,82,0.00,,,0.00,Wunderground v.1.15,2013-11-27 13:05:00,
2013-11-27 05:11:00,41.6,36.5,29.91,East,93,4.0,7.0,82,0.00,,,0.00,Wunderground v.1.15,2013-11-27 13:11:00,
2013-11-27 05:16:00,41.7,36.9,29.92,East,93,3.0,7.0,83,0.00,,,0.00,Wunderground v.1.15,2013-11-27 13:16:00,
2013-11-27 05:22:00,41.7,36.6,29.92,East,93,3.0,7.0,82,0.00,,,0.00,Wunderground v.1.15,2013-11-27 13:22:00,
2013-11-27 05:28:00,41.7,36.9,29.92,East,93,2.0,7.0,83,0.00,,,0.00,Wunderground v.1.15,2013-11-27 13:28:00,
2013-11-27 05:34:00,41.7,36.9,29.92,East,93,1.0,7.0,83,0.00,,,0.00,Wunderground v.1.15,2013-11-27 13:34:00,
2013-11-27 05:40:00,41.5,36.4,29.92,East,93,1.0,1.0,82,0.00,,,0.00,Wunderground v.1.15,2013-11-27 13:40:00,
2013-11-27 05:46:00,41.3,36.2,29.92,East,93,0.0,7.0,82,0.00,,,0.00,Wunderground v.1.15,2013-11-27 13:46:00,
2013-11-27 05:52:00,40.9,36.1,29.92,East,93,1.0,7.0,83,0.00,,,0.00,Wunderground v.1.15,2013-11-27 13:52:00,
2013-11-27 05:58:00,40.6,35.8,29.92,East,93,1.0,7.0,83,0.00,,,0.00,Wunderground v.1.15,2013-11-27 13:58:00,
2013-11-27 06:03:00,40.5,35.7,29.92,East,93,0.0,7.0,83,0.00,,,0.00,Wunderground v.1.15,2013-11-27 14:03:00,
2013-11-27 06:09:00,40.4,35.9,29.92,East,93,1.0,7.0,84,0.00,,,0.00,Wunderground v.1.15,2013-11-27 14:09:00,
2013-11-27 06:15:00,40.2,35.8,29.92,East,93,1.0,7.0,84,0.00,,,0.00,Wunderground v.1.15,2013-11-27 14:15:00,
2013-11-27 06:21:00,40.0,35.3,29.93,East,93,0.0,7.0,83,0.00,,,0.00,Wunderground v.1.15,2013-11-27 14:21:00,
2013-11-27 06:27:00,40.0,35.6,29.93,East,93,0.0,7.0,84,0.00,,,0.00,Wunderground v.1.15,2013-11-27 14:27:00,
2013-11-27 06:33:00,40.2,35.8,29.93,East,93,0.0,7.0,84,0.00,,,0.00,Wunderground v.1.15,2013-11-27 14:33:00,
2013-11-27 06:38:00,40.0,35.6,29.93,East,93,0.0,7.0,84,0.00,,,0.00,Wunderground v.1.15,2013-11-27 14:38:00,
2013-11-27 06:43:00,39.8,35.4,29.93,East,93,0.0,7.0,84,0.00,,,0.00,Wunderground v.1.15,2013-11-27 14:43:00,
2013-11-27 06:49:00,39.6,35.2,29.93,East,93,0.0,7.0,84,0.00,,,0.00,Wunderground v.1.15,2013-11-27 14:49:00,
2013-11-27 06:55:00,40.0,35.9,29.93,East,93,2.0,7.0,85,0.00,,,0.00,Wunderground v.1.15,2013-11-27 14:55:00,
2013-11-27 07:01:00,39.8,35.7,29.93,East,93,4.0,7.0,85,0.00,,,0.00,Wunderground v.1.15,2013-11-27 15:01:00,
2013-11-27 07:06:00,39.7,35.6,29.93,East,93,4.0,7.0,85,0.00,,,0.00,Wunderground v.1.15,2013-11-27 15:06:00,
2013-11-27 07:12:00,39.6,35.5,29.93,East,93,3.0,7.0,85,0.00,,,0.00,Wunderground v.1.15,2013-11-27 15:12:00,
2013-11-27 07:18:00,39.3,35.5,29.93,East,93,3.0,7.0,86,0.00,,,0.00,Wunderground v.1.15,2013-11-27 15:18:00,
2013-11-27 07:24:00,39.3,35.5,29.93,East,94,3.0,7.0,86,0.00,,,0.00,Wunderground v.1.15,2013-11-27 15:24:00,
2013-11-27 07:30:00,39.6,35.8,29.92,East,94,3.0,3.0,86,0.00,,,0.00,Wunderground v.1.15,2013-11-27 15:30:00,
2013-11-27 07:36:00,39.8,36.0,29.92,East,94,3.0,7.0,86,0.00,,,0.00,Wunderground v.1.15,2013-11-27 15:36:00,
2013-11-27 07:42:00,39.7,35.6,29.92,East,94,3.0,7.0,85,0.00,,,0.00,Wunderground v.1.15,2013-11-27 15:42:00,
2013-11-27 07:48:00,39.7,35.9,29.92,East,93,3.0,7.0,86,0.00,,,0.00,Wunderground v.1.15,2013-11-27 15:48:00,
2013-11-27 07:53:00,39.8,36.0,29.92,East,93,3.0,7.0,86,0.00,,,0.00,Wunderground v.1.15,2013-11-27 15:53:00,
2013-11-27 07:58:00,40.0,36.2,29.92,East,93,3.0,7.0,86,0.00,,,0.00,Wunderground v.1.15,2013-11-27 15:58:00,
2013-11-27 08:04:00,40.1,36.2,29.92,East,93,3.0,7.0,86,0.00,,,0.00,Wunderground v.1.15,2013-11-27 16:04:00,
2013-11-27 08:10:00,40.5,36.6,29.92,East,92,3.0,7.0,86,0.00,,,0.00,Wunderground v.1.15,2013-11-27 16:10:00,
2013-11-27 08:16:00,40.8,36.6,29.92,East,91,4.0,7.0,85,0.00,,,0.00,Wunderground v.1.15,2013-11-27 16:16:00,
2013-11-27 08:21:00,41.2,37.0,29.92,East,91,3.0,7.0,85,0.00,,,0.00,Wunderground v.1.15,2013-11-27 16:21:00,
2013-11-27 08:28:00,41.6,37.4,29.92,East,91,4.0,7.0,85,0.00,,,0.00,Wunderground v.1.15,2013-11-27 16:28:00,
2013-11-27 08:33:00,42.0,37.5,29.92,East,92,4.0,7.0,84,0.00,,,0.00,Wunderground v.1.15,2013-11-27 16:33:00,
2013-11-27 08:39:00,42.5,38.0,29.92,East,91,4.0,7.0,84,0.00,,,0.00,Wunderground v.1.15,2013-11-27 16:39:00,
2013-11-27 08:45:00,42.7,37.9,29.92,East,92,4.0,7.0,83,0.00,,,0.00,Wunderground v.1.15,2013-11-27 16:45:00,
2013-11-27 08:51:00,43.0,38.2,29.92,East,91,3.0,7.0,83,0.00,,,0.00,Wunderground v.1.15,2013-11-27 16:51:00,
2013-11-27 08:57:00,43.2,38.1,29.92,East,91,3.0,7.0,82,0.00,,,0.00,Wunderground v.1.15,2013-11-27 16:57:00,
2013-11-27 09:03:00,43.5,38.4,29.92,East,92,3.0,7.0,82,0.00,,,0.00,Wunderground v.1.15,2013-11-27 17:03:00,
2013-11-27 09:09:00,43.8,38.7,29.92,East,92,4.0,7.0,82,0.00,,,0.00,Wunderground v.1.15,2013-11-27 17:09:00,
2013-11-27 09:14:00,44.1,39.0,29.92,East,92,4.0,7.0,82,0.00,,,0.00,Wunderground v.1.15,2013-11-27 17:14:00,
2013-11-27 09:19:00,44.4,38.9,29.92,East,91,3.0,7.0,81,0.00,,,0.00,Wunderground v.1.15,2013-11-27 17:19:00,
2013-11-27 09:25:00,44.7,39.2,29.92,East,92,4.0,7.0,81,0.00,,,0.00,Wunderground v.1.15,2013-11-27 17:25:00,
2013-11-27 09:31:00,45.1,39.6,29.92,East,91,3.0,7.0,81,0.00,,,0.00,Wunderground v.1.15,2013-11-27 17:31:00,
2013-11-27 09:37:00,45.5,40.0,29.92,East,99,2.0,7.0,81,0.00,,,0.00,Wunderground v.1.15,2013-11-27 17:37:00,
2013-11-27 09:43:00,46.0,40.2,29.91,East,98,2.0,7.0,80,0.00,,,0.00,Wunderground v.1.15,2013-11-27 17:43:00,
2013-11-27 09:48:00,46.4,40.2,29.91,East,97,2.0,7.0,79,0.00,,,0.00,Wunderground v.1.15,2013-11-27 17:48:00,
2013-11-27 09:53:00,46.7,40.5,29.92,East,96,2.0,7.0,79,0.00,,,0.00,Wunderground v.1.15,2013-11-27 17:53:00,
2013-11-27 09:59:00,47.0,40.5,29.92,East,96,2.0,7.0,78,0.00,,,0.00,Wunderground v.1.15,2013-11-27 17:59:00,
2013-11-27 10:05:00,47.4,40.9,29.92,East,96,2.0,7.0,78,0.00,,,0.00,Wunderground v.1.15,2013-11-27 18:05:00,
2013-11-27 10:11:00,47.9,41.0,29.92,East,97,3.0,7.0,77,0.00,,,0.00,Wunderground v.1.15,2013-11-27 18:11:00,
2013-11-27 10:17:00,48.6,41.7,29.92,East,97,3.0,7.0,77,0.00,,,0.00,Wunderground v.1.15,2013-11-27 18:17:00,
2013-11-27 10:23:00,49.4,42.1,29.92,East,94,3.0,7.0,76,0.00,,,0.00,Wunderground v.1.15,2013-11-27 18:23:00,
2013-11-27 10:28:00,50.0,42.4,29.92,East,96,4.0,7.0,75,0.00,,,0.00,Wunderground v.1.15,2013-11-27 18:28:00,
2013-11-27 10:34:00,50.3,42.3,29.91,East,95,3.0,7.0,74,0.00,,,0.00,Wunderground v.1.15,2013-11-27 18:34:00,
2013-11-27 10:40:00,50.8,43.2,29.91,East,95,4.0,7.0,75,0.00,,,0.00,Wunderground v.1.15,2013-11-27 18:40:00,
2013-11-27 10:46:00,51.3,43.3,29.91,East,94,4.0,7.0,74,0.00,,,0.00,Wunderground v.1.15,2013-11-27 18:46:00,
2013-11-27 10:52:00,52.1,44.1,29.91,East,94,4.0,7.0,74,0.00,,,0.00,Wunderground v.1.15,2013-11-27 18:52:00,
2013-11-27 10:58:00,52.9,44.1,29.91,East,94,4.0,7.0,72,0.00,,,0.00,Wunderground v.1.15,2013-11-27 18:58:00,
2013-11-27 11:04:00,53.5,44.3,29.91,East,94,4.0,7.0,71,0.00,,,0.00,Wunderground v.1.15,2013-11-27 19:04:00,
2013-11-27 11:06:00,53.7,44.9,29.91,East,94,4.0,7.0,72,0.00,,,0.00,Wunderground v.1.15,2013-11-27 19:06:00,
2013-11-27 11:12:00,54.4,44.1,29.91,East,94,4.0,7.0,68,0.00,,,0.00,Wunderground v.1.15,2013-11-27 19:12:00,
2013-11-27 11:18:00,55.0,44.2,29.91,East,94,3.0,7.0,67,0.00,,,0.00,Wunderground v.1.15,2013-11-27 19:18:00,
2013-11-27 11:24:00,55.4,43.8,29.91,East,94,3.0,7.0,65,0.00,,,0.00,Wunderground v.1.15,2013-11-27 19:24:00,
2013-11-27 11:29:00,55.5,42.7,29.90,East,94,3.0,7.0,62,0.00,,,0.00,Wunderground v.1.15,2013-11-27 19:29:00,
2013-11-27 11:35:00,56.0,43.6,29.90,East,94,4.0,7.0,63,0.00,,,0.00,Wunderground v.1.15,2013-11-27 19:35:00,
2013-11-27 11:41:00,56.2,43.3,29.90,East,94,3.0,7.0,62,0.00,,,0.00,Wunderground v.1.15,2013-11-27 19:41:00,
2013-11-27 11:47:00,56.5,42.8,29.90,East,94,3.0,7.0,60,0.00,,,0.00,Wunderground v.1.15,2013-11-27 19:47:00,
2013-11-27 11:53:00,56.9,42.3,29.90,East,94,3.0,7.0,58,0.00,,,0.00,Wunderground v.1.15,2013-11-27 19:53:00,
2013-11-27 11:59:00,56.9,41.8,29.89,East,94,3.0,7.0,57,0.00,,,0.00,Wunderground v.1.15,2013-11-27 19:59:00,
2013-11-27 12:04:00,56.9,40.9,29.89,East,94,3.0,7.0,55,0.00,,,0.00,Wunderground v.1.15,2013-11-27 20:04:00,
2013-11-27 12:10:00,57.4,41.4,29.89,East,94,3.0,7.0,55,0.00,,,0.00,Wunderground v.1.15,2013-11-27 20:10:00,
2013-11-27 12:16:00,57.8,41.7,29.89,East,94,3.0,7.0,55,0.00,,,0.00,Wunderground v.1.15,2013-11-27 20:16:00,
2013-11-27 12:22:00,58.1,40.6,29.89,East,94,3.0,7.0,52,0.00,,,0.00,Wunderground v.1.15,2013-11-27 20:22:00,
2013-11-27 12:28:00,58.3,40.7,29.89,East,94,3.0,7.0,52,0.00,,,0.00,Wunderground v.1.15,2013-11-27 20:28:00,
2013-11-27 12:34:00,58.5,40.4,29.89,East,94,2.0,7.0,51,0.00,,,0.00,Wunderground v.1.15,2013-11-27 20:34:00,
2013-11-27 12:40:00,58.6,42.9,29.89,East,94,2.0,7.0,56,0.00,,,0.00,Wunderground v.1.15,2013-11-27 20:40:00,
2013-11-27 12:46:00,58.1,41.5,29.88,East,94,1.0,7.0,54,0.00,,,0.00,Wunderground v.1.15,2013-11-27 20:46:00,
2013-11-27 12:51:00,58.2,42.1,29.88,East,94,0.0,7.0,55,0.00,,,0.00,Wunderground v.1.15,2013-11-27 20:51:00,
2013-11-27 12:57:00,58.2,43.0,29.88,East,94,0.0,7.0,57,0.00,,,0.00,Wunderground v.1.15,2013-11-27 20:57:00,
2013-11-27 13:03:00,57.4,44.5,29.88,East,94,1.0,7.0,62,0.00,,,0.00,Wunderground v.1.15,2013-11-27 21:03:00,
2013-11-27 13:09:00,56.4,44.4,29.87,East,94,1.0,7.0,64,0.00,,,0.00,Wunderground v.1.15,2013-11-27 21:09:00,
2013-11-27 13:15:00,55.3,43.3,29.87,East,94,2.0,7.0,64,0.00,,,0.00,Wunderground v.1.15,2013-11-27 21:15:00,
2013-11-27 13:21:00,55.2,44.0,29.87,East,94,1.0,7.0,66,0.00,,,0.00,Wunderground v.1.15,2013-11-27 21:21:00,
2013-11-27 13:27:00,55.2,44.0,29.87,East,94,1.0,7.0,66,0.00,,,0.00,Wunderground v.1.15,2013-11-27 21:27:00,
2013-11-27 13:33:00,55.4,44.6,29.87,East,94,1.0,7.0,67,0.00,,,0.00,Wunderground v.1.15,2013-11-27 21:33:00,
2013-11-27 13:38:00,55.5,43.9,29.87,East,94,1.0,7.0,65,0.00,,,0.00,Wunderground v.1.15,2013-11-27 21:38:00,
2013-11-27 13:43:00,55.7,44.1,29.87,East,94,1.0,7.0,65,0.00,,,0.00,Wunderground v.1.15,2013-11-27 21:43:00,
2013-11-27 13:49:00,55.8,43.0,29.87,East,94,0.0,7.0,62,0.00,,,0.00,Wunderground v.1.15,2013-11-27 21:49:00,
2013-11-27 13:55:00,55.8,43.0,29.87,East,94,0.0,7.0,62,0.00,,,0.00,Wunderground v.1.15,2013-11-27 21:55:00,
2013-11-27 14:01:00,55.8,43.0,29.87,East,94,1.0,2.0,62,0.00,,,0.00,Wunderground v.1.15,2013-11-27 22:01:00,
2013-11-27 14:07:00,55.4,42.6,29.86,East,94,1.0,7.0,62,0.00,,,0.00,Wunderground v.1.15,2013-11-27 22:07:00,
2013-11-27 14:13:00,55.2,42.8,29.86,East,94,1.0,7.0,63,0.00,,,0.00,Wunderground v.1.15,2013-11-27 22:13:00,
2013-11-27 14:18:00,55.0,42.6,29.86,East,94,1.0,7.0,63,0.00,,,0.00,Wunderground v.1.15,2013-11-27 22:18:00,
2013-11-27 14:23:00,55.0,42.2,29.86,East,94,1.0,7.0,62,0.00,,,0.00,Wunderground v.1.15,2013-11-27 22:23:00,
2013-11-27 14:29:00,54.9,42.5,29.86,East,94,0.0,7.0,63,0.00,,,0.00,Wunderground v.1.15,2013-11-27 22:29:00,
2013-11-27 14:35:00,54.6,41.4,29.86,East,94,1.0,7.0,61,0.00,,,0.00,Wunderground v.1.15,2013-11-27 22:35:00,
2013-11-27 14:41:00,54.8,40.7,29.86,East,94,1.0,7.0,59,0.00,,,0.00,Wunderground v.1.15,2013-11-27 22:41:00,
2013-11-27 14:47:00,55.3,40.8,29.85,East,94,1.0,7.0,58,0.00,,,0.00,Wunderground v.1.15,2013-11-27 22:47:00,
2013-11-27 14:53:00,55.8,41.7,29.85,East,94,1.0,7.0,59,0.00,,,0.00,Wunderground v.1.15,2013-11-27 22:53:00,
2013-11-27 14:58:00,55.8,40.8,29.85,East,94,1.0,7.0,57,0.00,,,0.00,Wunderground v.1.15,2013-11-27 22:58:00,
2013-11-27 15:04:00,55.8,41.2,29.85,East,94,1.0,7.0,58,0.00,,,0.00,Wunderground v.1.15,2013-11-27 23:04:00,
2013-11-27 15:10:00,55.7,41.1,29.85,East,94,1.0,7.0,58,0.00,,,0.00,Wunderground v.1.15,2013-11-27 23:10:00,
2013-11-27 15:16:00,55.8,39.9,29.85,East,94,1.0,7.0,55,0.00,,,0.00,Wunderground v.1.15,2013-11-27 23:16:00,
2013-11-27 15:22:00,56.0,39.6,29.85,East,94,1.0,7.0,54,0.00,,,0.00,Wunderground v.1.15,2013-11-27 23:22:00,
2013-11-27 15:28:00,56.1,39.2,29.85,East,94,1.0,7.0,53,0.00,,,0.00,Wunderground v.1.15,2013-11-27 23:28:00,
2013-11-27 15:34:00,56.4,39.5,29.85,East,94,1.0,7.0,53,0.00,,,0.00,Wunderground v.1.15,2013-11-27 23:34:00,
2013-11-27 15:40:00,56.5,42.3,29.86,East,94,0.0,7.0,59,0.00,,,0.00,Wunderground v.1.15,2013-11-27 23:40:00,
2013-11-27 15:45:00,55.7,42.9,29.86,East,94,0.0,7.0,62,0.00,,,0.00,Wunderground v.1.15,2013-11-27 23:45:00,
2013-11-27 15:51:00,54.9,40.4,29.86,East,94,0.0,7.0,58,0.00,,,0.00,Wunderground v.1.15,2013-11-27 23:51:00,
2013-11-27 15:57:00,54.7,38.8,29.85,East,94,1.0,7.0,55,0.00,,,0.00,Wunderground v.1.15,2013-11-27 23:57:00,
2013-11-27 16:03:00,54.7,39.8,29.85,East,94,1.0,7.0,57,0.00,,,0.00,Wunderground v.1.15,2013-11-28 00:03:00,
2013-11-27 16:09:00,54.2,39.3,29.85,East,94,2.0,7.0,57,0.00,,,0.00,Wunderground v.1.15,2013-11-28 00:09:00,
2013-11-27 16:15:00,54.0,39.1,29.85,East,94,3.0,7.0,57,0.00,,,0.00,Wunderground v.1.15,2013-11-28 00:15:00,
2013-11-27 16:20:00,53.7,39.7,29.85,East,94,4.0,7.0,59,0.00,,,0.00,Wunderground v.1.15,2013-11-28 00:20:00,
2013-11-27 16:26:00,53.7,39.7,29.85,East,94,4.0,7.0,59,0.00,,,0.00,Wunderground v.1.15,2013-11-28 00:26:00,
2013-11-27 16:32:00,54.0,39.5,29.85,East,94,3.0,7.0,58,0.00,,,0.00,Wunderground v.1.15,2013-11-28 00:32:00,
2013-11-27 16:38:00,54.2,40.2,29.85,East,94,3.0,7.0,59,0.00,,,0.00,Wunderground v.1.15,2013-11-28 00:38:00,
2013-11-27 16:44:00,54.1,40.1,29.85,East,94,2.0,7.0,59,0.00,,,0.00,Wunderground v.1.15,2013-11-28 00:44:00,
2013-11-27 16:50:00,53.9,40.3,29.85,East,94,2.0,7.0,60,0.00,,,0.00,Wunderground v.1.15,2013-11-28 00:50:00,
2013-11-27 16:55:00,53.7,40.1,29.85,East,94,2.0,7.0,60,0.00,,,0.00,Wunderground v.1.15,2013-11-28 00:55:00,
2013-11-27 17:01:00,53.8,41.5,29.85,East,94,2.0,7.0,63,0.00,,,0.00,Wunderground v.1.15,2013-11-28 01:01:00,
2013-11-27 17:07:00,54.1,42.6,29.85,East,94,1.0,7.0,65,0.00,,,0.00,Wunderground v.1.15,2013-11-28 01:07:00,
2013-11-27 17:13:00,54.0,42.9,29.85,East,94,0.0,7.0,66,0.00,,,0.00,Wunderground v.1.15,2013-11-28 01:13:00,
2013-11-27 17:19:00,54.0,43.3,29.86,East,94,0.0,7.0,67,0.00,,,0.00,Wunderground v.1.15,2013-11-28 01:19:00,
2013-11-27 17:24:00,53.8,43.1,29.85,East,94,1.0,7.0,67,0.00,,,0.00,Wunderground v.1.15,2013-11-28 01:24:00,
2013-11-27 17:30:00,53.1,43.2,29.85,East,94,1.0,7.0,69,0.00,,,0.00,Wunderground v.1.15,2013-11-28 01:30:00,
2013-11-27 17:36:00,52.5,43.0,29.85,East,94,1.0,7.0,70,0.00,,,0.00,Wunderground v.1.15,2013-11-28 01:36:00,
2013-11-27 17:42:00,52.0,43.3,29.86,East,94,1.0,7.0,72,0.00,,,0.00,Wunderground v.1.15,2013-11-28 01:42:00,
2013-11-27 17:48:00,51.5,42.8,29.86,East,94,1.0,7.0,72,0.00,,,0.00,Wunderground v.1.15,2013-11-28 01:48:00,
2013-11-27 17:54:00,50.8,42.5,29.86,East,94,1.0,7.0,73,0.00,,,0.00,Wunderground v.1.15,2013-11-28 01:54:00,
2013-11-27 17:59:00,50.4,42.4,29.86,East,94,0.0,7.0,74,0.00,,,0.00,Wunderground v.1.15,2013-11-28 01:59:00,
2013-11-27 18:05:00,50.2,42.2,29.86,East,94,0.0,7.0,74,0.00,,,0.00,Wunderground v.1.15,2013-11-28 02:05:00,
2013-11-27 18:11:00,49.9,42.3,29.86,East,94,0.0,7.0,75,0.00,,,0.00,Wunderground v.1.15,2013-11-28 02:11:00,
2013-11-27 18:17:00,50.3,43.0,29.86,East,94,2.0,7.0,76,0.00,,,0.00,Wunderground v.1.15,2013-11-28 02:17:00,
2013-11-27 18:23:00,50.6,43.3,29.87,East,94,2.0,7.0,76,0.00,,,0.00,Wunderground v.1.15,2013-11-28 02:23:00,
2013-11-27 18:29:00,50.8,43.8,29.86,East,94,2.0,7.0,77,0.00,,,0.00,Wunderground v.1.15,2013-11-28 02:29:00,
2013-11-27 18:35:00,50.6,43.7,29.87,East,94,3.0,7.0,77,0.00,,,0.00,Wunderground v.1.15,2013-11-28 02:35:00,
2013-11-27 18:40:00,50.3,43.4,29.87,East,94,3.0,7.0,77,0.00,,,0.00,Wunderground v.1.15,2013-11-28 02:40:00,
2013-11-27 18:45:00,49.7,42.8,29.87,East,94,3.0,7.0,77,0.00,,,0.00,Wunderground v.1.15,2013-11-28 02:45:00,
2013-11-27 18:51:00,48.6,42.0,29.87,East,94,2.0,7.0,78,0.00,,,0.00,Wunderground v.1.15,2013-11-28 02:51:00,
2013-11-27 18:57:00,48.1,41.9,29.87,East,94,3.0,7.0,79,0.00,,,0.00,Wunderground v.1.15,2013-11-28 02:57:00,
2013-11-27 19:03:00,47.1,41.6,29.87,East,94,4.0,7.0,81,0.00,,,0.00,Wunderground v.1.15,2013-11-28 03:03:00,
2013-11-27 19:09:00,46.9,41.7,29.87,East,94,4.0,7.0,82,0.00,,,0.00,Wunderground v.1.15,2013-11-28 03:09:00,
2013-11-27 19:15:00,46.8,41.9,29.87,East,94,4.0,7.0,83,0.00,,,0.00,Wunderground v.1.15,2013-11-28 03:15:00,
2013-11-27 19:20:00,46.2,41.3,29.87,East,94,5.0,7.0,83,0.00,,,0.00,Wunderground v.1.15,2013-11-28 03:20:00,
2013-11-27 19:26:00,45.6,41.4,29.87,East,94,5.0,7.0,85,0.00,,,0.00,Wunderground v.1.15,2013-11-28 03:26:00,
2013-11-27 19:32:00,45.5,41.6,29.87,East,94,4.0,7.0,86,0.00,,,0.00,Wunderground v.1.15,2013-11-28 03:32:00,
2013-11-27 19:38:00,45.9,42.2,29.87,East,94,4.0,7.0,87,0.00,,,0.00,Wunderground v.1.15,2013-11-28 03:38:00,
2013-11-27 19:44:00,45.8,41.9,29.87,East,94,3.0,7.0,86,0.00,,,0.00,Wunderground v.1.15,2013-11-28 03:44:00,
2013-11-27 19:50:00,45.7,42.1,29.87,East,94,2.0,7.0,87,0.00,,,0.00,Wunderground v.1.15,2013-11-28 03:50:00,
2013-11-27 19:56:00,45.6,42.0,29.88,East,94,2.0,7.0,87,0.00,,,0.00,Wunderground v.1.15,2013-11-28 03:56:00,
2013-11-27 20:02:00,45.8,42.4,29.88,East,94,2.0,7.0,88,0.00,,,0.00,Wunderground v.1.15,2013-11-28 04:02:00,
2013-11-27 20:08:00,46.2,42.8,29.88,East,94,2.0,7.0,88,0.00,,,0.00,Wunderground v.1.15,2013-11-28 04:08:00,
2013-11-27 20:13:00,46.3,42.6,29.88,East,94,2.0,7.0,87,0.00,,,0.00,Wunderground v.1.15,2013-11-28 04:13:00,
2013-11-27 20:19:00,46.3,42.6,29.88,East,94,3.0,7.0,87,0.00,,,0.00,Wunderground v.1.15,2013-11-28 04:19:00,
2013-11-27 20:25:00,46.1,42.4,29.88,East,94,3.0,7.0,87,0.00,,,0.00,Wunderground v.1.15,2013-11-28 04:25:00,
2013-11-27 20:31:00,45.6,42.0,29.88,East,94,3.0,7.0,87,0.00,,,0.00,Wunderground v.1.15,2013-11-28 04:31:00,
2013-11-27 20:37:00,44.9,41.3,29.88,East,94,2.0,7.0,87,0.00,,,0.00,Wunderground v.1.15,2013-11-28 04:37:00,
2013-11-27 20:43:00,44.2,40.6,29.88,East,94,1.0,7.0,87,0.00,,,0.00,Wunderground v.1.15,2013-11-28 04:43:00,
2013-11-27 20:49:00,43.8,40.8,29.89,East,94,3.0,7.0,89,0.00,,,0.00,Wunderground v.1.15,2013-11-28 04:49:00,
2013-11-27 20:55:00,43.6,40.9,29.89,East,94,3.0,7.0,90,0.00,,,0.00,Wunderground v.1.15,2013-11-28 04:55:00,
2013-11-27 21:00:00,43.5,41.0,29.89,East,94,4.0,7.0,91,0.00,,,0.00,Wunderground v.1.15,2013-11-28 05:00:00,
2013-11-27 21:01:00,43.5,41.0,29.89,East,94,4.0,7.0,91,0.00,,,0.00,Wunderground v.1.15,2013-11-28 05:01:00,
2013-11-27 21:03:00,43.4,40.9,29.89,East,94,4.0,7.0,91,0.00,,,0.00,Wunderground v.1.15,2013-11-28 05:03:00,
2013-11-27 21:05:00,43.3,40.6,29.89,East,94,5.0,7.0,90,0.00,,,0.00,Wunderground v.1.15,2013-11-28 05:05:00,
2013-11-27 21:07:00,43.2,40.8,29.89,East,94,5.0,7.0,91,0.00,,,0.00,Wunderground v.1.15,2013-11-28 05:07:00,
2013-11-27 21:09:00,43.2,40.8,29.89,East,94,5.0,7.0,91,0.00,,,0.00,Wunderground v.1.15,2013-11-28 05:09:00,
2013-11-27 21:15:00,42.5,39.8,29.89,East,94,4.0,7.0,90,0.00,,,0.00,Wunderground v.1.15,2013-11-28 05:15:00,
2013-11-27 21:20:00,42.2,39.8,29.89,East,94,2.0,7.0,91,0.00,,,0.00,Wunderground v.1.15,2013-11-28 05:20:00,
2013-11-27 21:26:00,42.1,39.9,29.89,East,94,1.0,7.0,92,0.00,,,0.00,Wunderground v.1.15,2013-11-28 05:26:00,
2013-11-27 21:32:00,42.0,39.8,29.89,East,94,1.0,7.0,92,0.00,,,0.00,Wunderground v.1.15,2013-11-28 05:32:00,
2013-11-27 21:38:00,41.8,39.6,29.89,East,94,0.0,7.0,92,0.00,,,0.00,Wunderground v.1.15,2013-11-28 05:38:00,
2013-11-27 21:44:00,41.4,39.0,29.89,East,94,0.0,7.0,91,0.00,,,0.00,Wunderground v.1.15,2013-11-28 05:44:00,
2013-11-27 21:50:00,41.4,39.3,29.89,East,94,0.0,7.0,92,0.00,,,0.00,Wunderground v.1.15,2013-11-28 05:50:00,
2013-11-27 21:56:00,41.3,39.2,29.90,East,94,0.0,7.0,92,0.00,,,0.00,Wunderground v.1.15,2013-11-28 05:56:00,
2013-11-27 22:02:00,41.1,39.0,29.90,East,94,0.0,7.0,92,0.00,,,0.00,Wunderground v.1.15,2013-11-28 06:02:00,
2013-11-27 22:08:00,41.8,40.2,29.90,East,94,1.0,7.0,94,0.00,,,0.00,Wunderground v.1.15,2013-11-28 06:08:00,
2013-11-27 22:14:00,42.9,41.0,29.90,East,94,2.0,7.0,93,0.00,,,0.00,Wunderground v.1.15,2013-11-28 06:14:00,
2013-11-27 22:19:00,42.9,40.7,29.90,East,94,1.0,7.0,92,0.00,,,0.00,Wunderground v.1.15,2013-11-28 06:19:00,
2013-11-27 22:25:00,42.7,40.8,29.90,East,94,1.0,7.0,93,0.00,,,0.00,Wunderground v.1.15,2013-11-28 06:25:00,
2013-11-27 22:31:00,42.8,40.6,29.90,East,94,1.0,7.0,92,0.00,,,0.00,Wunderground v.1.15,2013-11-28 06:31:00,
2013-11-27 22:37:00,42.6,40.4,29.91,East,94,0.0,7.0,92,0.00,,,0.00,Wunderground v.1.15,2013-11-28 06:37:00,
2013-11-27 22:43:00,42.7,40.8,29.91,East,94,0.0,7.0,93,0.00,,,0.00,Wunderground v.1.15,2013-11-28 06:43:00,
2013-11-27 22:49:00,42.9,41.0,29.91,East,94,0.0,7.0,93,0.00,,,0.00,Wunderground v.1.15,2013-11-28 06:49:00,
2013-11-27 22:55:00,42.6,40.4,29.91,East,94,0.0,7.0,92,0.00,,,0.00,Wunderground v.1.15,2013-11-28 06:55:00,
2013-11-27 23:00:00,42.5,40.6,29.91,East,94,0.0,7.0,93,0.00,,,0.00,Wunderground v.1.15,2013-11-28 07:00:00,
2013-11-27 23:06:00,43.1,41.2,29.91,East,94,2.0,7.0,93,0.00,,,0.00,Wunderground v.1.15,2013-11-28 07:06:00,
2013-11-27 23:12:00,43.2,41.3,29.91,East,94,2.0,7.0,93,0.00,,,0.00,Wunderground v.1.15,2013-11-28 07:12:00,
2013-11-27 23:18:00,43.2,41.0,29.91,East,94,1.0,7.0,92,0.00,,,0.00,Wunderground v.1.15,2013-11-28 07:18:00,
2013-11-27 23:24:00,42.9,40.7,29.91,East,94,0.0,7.0,92,0.00,,,0.00,Wunderground v.1.15,2013-11-28 07:24:00,
2013-11-27 23:30:00,42.7,40.5,29.91,East,94,0.0,7.0,92,0.00,,,0.00,Wunderground v.1.15,2013-11-28 07:30:00,
2013-11-27 23:36:00,42.8,40.9,29.91,East,94,1.0,7.0,93,0.00,,,0.00,Wunderground v.1.15,2013-11-28 07:36:00,
2013-11-27 23:41:00,42.9,40.7,29.91,East,94,1.0,7.0,92,0.00,,,0.00,Wunderground v.1.15,2013-11-28 07:41:00,
2013-11-27 23:47:00,43.1,41.2,29.91,East,94,1.0,7.0,93,0.00,,,0.00,Wunderground v.1.15,2013-11-28 07:47:00,
2013-11-27 23:53:00,42.9,40.7,29.91,East,94,2.0,7.0,92,0.00,,,0.00,Wunderground v.1.15,2013-11-28 07:53:00,
2013-11-27 23:59:00,41.7,39.3,29.91,East,94,3.0,7.0,91,0.00,,,0.00,Wunderground v.1.15,2013-11-28 07:59:00,